createdAt,value
2023-05-06T00:06:30.447Z,6.40
2023-05-06T00:16:34.133Z,6.00
2023-05-06T00:26:37.738Z,5.80
2023-05-06T00:36:43.170Z,5.70
2023-05-06T00:46:47.397Z,5.50
2023-05-06T00:56:51.190Z,6.10
2023-05-06T01:07:05.812Z,5.50
2023-05-06T01:17:12.921Z,5.40
2023-05-06T01:27:17.352Z,5.60
2023-05-06T01:37:32.749Z,4.20
2023-05-06T01:47:37.875Z,5.40
2023-05-06T01:57:42.321Z,4.80
2023-05-06T02:07:45.916Z,4.80
2023-05-06T02:17:50.215Z,4.90
2023-05-06T02:27:53.948Z,5.20
2023-05-06T02:37:59.544Z,5.70
2023-05-06T02:48:04.260Z,5.80
2023-05-06T02:58:07.956Z,5.10
2023-05-06T03:08:11.702Z,4.30
2023-05-06T03:18:16.118Z,5.10
2023-05-06T03:28:20.160Z,4.60
2023-05-06T03:38:25.121Z,4.30
2023-05-06T03:48:33.158Z,5.60
2023-05-06T03:58:37.021Z,4.00
2023-05-06T04:08:41.200Z,2.50
2023-05-06T04:18:46.345Z,3.70
2023-05-06T04:28:52.009Z,2.60
2023-05-06T04:38:55.954Z,3.30
2023-05-06T04:49:00.005Z,2.60
2023-05-06T04:59:03.776Z,3.30
2023-05-06T05:09:09.231Z,3.30
2023-05-06T05:19:14.177Z,4.80
2023-05-06T05:29:18.698Z,3.70
2023-05-06T05:39:24.360Z,4.10
2023-05-06T05:49:28.228Z,4.20
2023-05-06T05:59:33.084Z,5.30
2023-05-06T06:09:39.416Z,5.30
2023-05-06T06:19:46.010Z,5.00
2023-05-06T06:29:50.678Z,5.00
2023-05-06T06:39:54.349Z,5.30
2023-05-06T06:49:57.950Z,4.90
2023-05-06T07:00:01.672Z,6.10
2023-05-06T07:10:08.180Z,5.70
2023-05-06T07:20:12.701Z,4.80
2023-05-06T07:30:17.118Z,4.70
2023-05-06T07:40:20.900Z,4.40
2023-05-06T07:50:24.712Z,4.80
2023-05-06T08:00:29.700Z,4.10
2023-05-06T08:10:33.311Z,4.20
2023-05-06T08:20:36.950Z,5.00
2023-05-06T08:30:42.186Z,4.90
2023-05-06T08:40:49.138Z,7.30
2023-05-06T08:50:54.907Z,3.90
2023-05-06T09:00:59.997Z,3.70
2023-05-06T09:11:21.515Z,4.50
2023-05-06T09:21:39.670Z,3.50
2023-05-06T09:31:46.797Z,4.10
2023-05-06T09:41:51.232Z,4.80
2023-05-06T09:51:57.849Z,11.00
2023-05-06T10:02:03.013Z,4.90
2023-05-06T10:12:10.356Z,5.00
2023-05-06T10:22:26.496Z,6.50
2023-05-06T10:32:33.220Z,7.50
2023-05-06T10:42:36.961Z,5.40
2023-05-06T10:52:48.207Z,4.10
2023-05-06T11:02:57.262Z,9.00
2023-05-06T11:13:19.275Z,5.00
2023-05-06T11:23:22.982Z,4.50
2023-05-06T11:33:32.554Z,5.70
2023-05-06T11:43:36.283Z,4.30
2023-05-06T11:53:39.842Z,4.90
2023-05-06T12:03:43.573Z,4.00
2023-05-06T12:13:47.396Z,3.10
2023-05-06T12:23:56.614Z,4.80
2023-05-06T12:34:01.280Z,4.60
2023-05-06T12:44:37.282Z,6.00
2023-05-06T12:54:41.114Z,5.00
2023-05-06T13:04:46.986Z,5.90
2023-05-06T13:14:50.902Z,6.00
2023-05-06T13:24:54.746Z,5.90
2023-05-06T13:34:58.350Z,9.10
2023-05-06T13:45:01.939Z,5.90
2023-05-06T13:55:06.498Z,7.60
2023-05-06T14:05:11.048Z,9.00
2023-05-06T14:15:15.427Z,8.30
2023-05-06T14:25:19.064Z,5.40
2023-05-06T14:35:23.042Z,4.30
2023-05-06T14:45:26.646Z,7.80
2023-05-06T14:55:30.313Z,8.30
2023-05-06T15:05:33.967Z,13.00
2023-05-06T15:15:37.596Z,11.40
2023-05-06T15:25:41.456Z,15.00
2023-05-06T15:35:45.365Z,8.80
2023-05-06T15:45:48.959Z,7.10
2023-05-06T15:55:57.258Z,12.40
2023-05-06T16:06:05.793Z,9.90
2023-05-06T16:16:09.492Z,7.10
2023-05-06T16:26:16.884Z,7.50
2023-05-06T16:36:20.566Z,8.00
2023-05-06T16:46:24.839Z,6.20
2023-05-06T16:56:43.937Z,7.00
2023-05-06T17:06:55.314Z,6.80
2023-05-06T17:17:04.270Z,5.40
2023-05-06T17:27:08.837Z,6.80
2023-05-06T17:37:12.510Z,6.30
2023-05-06T17:47:17.664Z,7.90
2023-05-06T17:57:23.312Z,7.40
2023-05-06T18:07:28.269Z,9.70
2023-05-06T18:17:31.902Z,10.40
2023-05-06T18:27:37.179Z,19.30
2023-05-06T18:37:40.952Z,17.30
2023-05-06T18:47:44.652Z,17.80
2023-05-06T18:57:49.880Z,17.30
2023-05-06T19:07:53.606Z,18.60
2023-05-06T19:17:57.268Z,14.70
2023-05-06T19:28:00.916Z,19.50
2023-05-06T19:38:06.378Z,26.80
2023-05-06T19:48:09.936Z,14.20
2023-05-06T19:58:14.255Z,11.80
2023-05-06T20:08:19.100Z,10.30
2023-05-06T20:18:23.118Z,10.20
2023-05-06T20:28:27.053Z,9.20
2023-05-06T20:38:31.089Z,9.80
2023-05-06T20:48:34.898Z,9.00
2023-05-06T20:58:38.658Z,7.80
2023-05-06T21:08:46.123Z,9.90
2023-05-06T21:18:50.261Z,8.60
2023-05-06T21:28:58.876Z,8.50
2023-05-06T21:39:08.667Z,8.90
2023-05-06T21:49:12.417Z,10.40
2023-05-06T21:59:16.124Z,8.20
2023-05-06T22:09:23.653Z,7.30
2023-05-06T22:19:29.149Z,8.90
2023-05-06T22:29:35.304Z,8.30
2023-05-06T22:39:41.305Z,7.00
2023-05-06T22:49:44.963Z,8.70
2023-05-06T22:59:50.739Z,8.20
2023-05-06T23:09:54.810Z,7.90
2023-05-06T23:19:59.518Z,7.80
2023-05-06T23:30:05.260Z,8.80
2023-05-06T23:40:09.271Z,9.00
2023-05-06T23:50:13.291Z,8.90
